createdAt,value
2023-03-22T00:01:10.367Z,7.89
2023-03-22T00:03:39.262Z,7.87
2023-03-22T00:06:08.356Z,7.85
2023-03-22T00:08:36.648Z,7.79
2023-03-22T00:11:05.901Z,7.76
2023-03-22T00:13:35.715Z,7.72
2023-03-22T00:16:06.501Z,7.85
2023-03-22T00:18:34.570Z,7.79
2023-03-22T00:21:02.839Z,7.72
2023-03-22T00:23:31.042Z,7.66
2023-03-22T00:25:59.764Z,7.63
2023-03-22T00:28:28.860Z,7.62
2023-03-22T00:30:59.393Z,7.63
2023-03-22T00:33:31.368Z,7.63
2023-03-22T00:36:01.178Z,7.70
2023-03-22T00:38:42.554Z,7.72
2023-03-22T00:41:14.716Z,7.71
2023-03-22T00:43:43.180Z,7.70
2023-03-22T00:46:12.393Z,7.66
2023-03-22T00:48:42.473Z,7.59
2023-03-22T00:51:11.607Z,7.53
2023-03-22T00:53:42.805Z,7.51
2023-03-22T00:56:15.894Z,7.52
2023-03-22T00:58:56.919Z,7.54
2023-03-22T01:01:25.206Z,7.52
2023-03-22T01:03:54.927Z,7.54
2023-03-22T01:06:23.271Z,7.53
2023-03-22T01:08:55.299Z,7.48
2023-03-22T01:11:24.180Z,7.47
2023-03-22T01:13:52.830Z,7.47
2023-03-22T01:16:21.752Z,7.42
2023-03-22T01:18:50.432Z,7.43
2023-03-22T01:21:20.349Z,7.42
2023-03-22T01:23:48.534Z,7.42
2023-03-22T01:26:17.101Z,7.42
2023-03-22T01:28:45.111Z,7.42
2023-03-22T01:31:13.640Z,7.39
2023-03-22T01:33:41.989Z,7.41
2023-03-22T01:36:10.635Z,7.47
2023-03-22T01:38:40.295Z,7.49
2023-03-22T01:41:08.708Z,7.48
2023-03-22T01:43:40.374Z,7.51
2023-03-22T01:46:09.758Z,7.55
2023-03-22T01:48:42.074Z,7.53
2023-03-22T01:51:14.291Z,7.68
2023-03-22T01:54:00.568Z,7.64
2023-03-22T01:56:32.536Z,7.53
2023-03-22T01:59:01.724Z,7.43
2023-03-22T02:01:40.976Z,7.40
2023-03-22T02:04:13.832Z,7.41
2023-03-22T02:06:42.909Z,7.55
2023-03-22T02:09:22.010Z,7.55
2023-03-22T02:11:56.704Z,7.54
2023-03-22T02:14:50.322Z,7.57
2023-03-22T02:18:06.439Z,7.52
2023-03-22T02:21:02.552Z,7.52
2023-03-22T02:24:02.311Z,7.53
2023-03-22T02:27:16.290Z,7.43
2023-03-22T02:29:48.220Z,7.51
2023-03-22T02:32:49.956Z,7.56
2023-03-22T02:35:31.889Z,7.49
2023-03-22T02:38:19.045Z,7.28
2023-03-22T02:40:53.836Z,7.18
2023-03-22T02:43:38.737Z,6.88
2023-03-22T02:46:12.266Z,6.84
2023-03-22T02:48:46.072Z,6.74
2023-03-22T02:51:20.143Z,6.62
2023-03-22T02:53:54.095Z,6.56
2023-03-22T02:56:30.004Z,6.33
2023-03-22T02:59:01.957Z,6.13
2023-03-22T03:01:37.241Z,6.03
2023-03-22T03:04:08.456Z,5.85
2023-03-22T03:06:41.047Z,5.71
2023-03-22T03:09:09.908Z,5.58
2023-03-22T03:11:39.736Z,5.48
2023-03-22T03:14:07.894Z,5.45
2023-03-22T03:16:36.692Z,5.32
2023-03-22T03:19:16.365Z,5.32
2023-03-22T03:21:52.012Z,5.08
2023-03-22T03:24:28.591Z,5.02
2023-03-22T03:27:05.073Z,5.15
2023-03-22T03:29:40.851Z,5.17
2023-03-22T03:32:15.969Z,5.05
2023-03-22T03:34:49.766Z,5.02
2023-03-22T03:37:22.023Z,5.02
2023-03-22T03:39:55.554Z,4.96
2023-03-22T03:42:29.104Z,4.94
2023-03-22T03:44:58.613Z,4.89
2023-03-22T03:47:29.963Z,4.90
2023-03-22T03:49:58.698Z,4.85
2023-03-22T03:52:27.679Z,4.67
2023-03-22T03:54:56.613Z,4.61
2023-03-22T03:57:31.902Z,4.46
2023-03-22T04:00:00.566Z,4.20
2023-03-22T04:03:07.455Z,4.09
2023-03-22T04:05:55.980Z,3.96
2023-03-22T04:08:24.605Z,3.89
2023-03-22T04:10:53.340Z,3.84
2023-03-22T04:13:25.317Z,3.90
2023-03-22T04:15:58.166Z,3.86
2023-03-22T04:18:29.801Z,3.91
2023-03-22T04:21:01.502Z,3.84
2023-03-22T04:23:34.105Z,3.80
2023-03-22T04:26:02.880Z,3.84
2023-03-22T04:28:55.409Z,3.85
2023-03-22T04:31:24.557Z,3.97
2023-03-22T04:34:06.833Z,3.98
2023-03-22T04:36:51.119Z,4.00
2023-03-22T04:39:25.702Z,4.06
2023-03-22T04:42:02.181Z,4.08
2023-03-22T04:44:32.461Z,4.16
2023-03-22T04:47:00.449Z,4.59
2023-03-22T04:49:29.042Z,4.48
2023-03-22T04:51:57.361Z,4.16
2023-03-22T04:54:39.020Z,4.15
2023-03-22T04:57:07.820Z,4.19
2023-03-22T04:59:44.416Z,4.21
2023-03-22T05:02:12.898Z,4.17
2023-03-22T05:04:44.184Z,4.25
2023-03-22T05:07:28.975Z,4.29
2023-03-22T05:10:00.004Z,4.34
2023-03-22T05:12:28.670Z,4.13
2023-03-22T05:15:09.276Z,3.89
2023-03-22T05:17:39.718Z,3.81
2023-03-22T05:20:10.448Z,3.87
2023-03-22T05:22:41.403Z,4.15
2023-03-22T05:25:12.190Z,4.50
2023-03-22T05:27:44.799Z,4.76
2023-03-22T05:30:33.049Z,5.04
2023-03-22T05:33:11.728Z,5.12
2023-03-22T05:35:45.158Z,5.17
2023-03-22T05:38:13.716Z,5.30
2023-03-22T05:40:46.793Z,5.33
2023-03-22T05:43:15.611Z,5.33
2023-03-22T05:45:49.605Z,5.24
2023-03-22T05:48:33.697Z,5.25
2023-03-22T05:51:03.977Z,5.23
2023-03-22T05:53:34.507Z,5.21
2023-03-22T05:56:11.425Z,5.25
2023-03-22T05:58:43.104Z,5.33
2023-03-22T06:01:16.528Z,5.43
2023-03-22T06:03:44.611Z,5.49
2023-03-22T06:06:21.305Z,5.66
2023-03-22T06:09:14.096Z,5.87
2023-03-22T06:11:44.510Z,6.07
2023-03-22T06:14:12.928Z,6.23
2023-03-22T06:17:00.222Z,6.43
2023-03-22T06:19:28.898Z,6.68
2023-03-22T06:21:58.335Z,6.81
2023-03-22T06:24:28.748Z,7.07
2023-03-22T06:26:56.758Z,7.18
2023-03-22T06:29:25.317Z,7.36
2023-03-22T06:31:55.710Z,7.54
2023-03-22T06:34:26.341Z,7.66
2023-03-22T06:36:55.330Z,7.84
2023-03-22T06:39:26.653Z,7.82
2023-03-22T06:41:55.460Z,8.15
2023-03-22T06:44:24.338Z,8.31
2023-03-22T06:47:06.177Z,8.62
2023-03-22T06:49:59.103Z,8.95
2023-03-22T06:52:39.822Z,9.23
2023-03-22T06:55:10.235Z,9.07
2023-03-22T06:57:38.580Z,9.17
2023-03-22T07:00:08.429Z,9.15
2023-03-22T07:02:37.527Z,9.22
2023-03-22T07:05:30.176Z,9.05
2023-03-22T07:07:58.501Z,9.24
2023-03-22T07:10:27.994Z,9.24
2023-03-22T07:12:56.238Z,9.35
2023-03-22T07:15:24.933Z,9.77
2023-03-22T07:18:02.854Z,10.48
2023-03-22T07:20:37.062Z,11.91
2023-03-22T07:23:06.731Z,12.64
2023-03-22T07:25:42.736Z,14.05
2023-03-22T07:28:33.174Z,15.33
2023-03-22T07:31:03.280Z,16.91
2023-03-22T07:33:37.383Z,15.77
2023-03-22T07:36:08.988Z,17.33
2023-03-22T07:38:38.320Z,18.12
2023-03-22T07:41:10.828Z,16.10
2023-03-22T07:44:07.766Z,15.38
2023-03-22T07:46:48.354Z,15.80
2023-03-22T07:49:21.416Z,15.67
2023-03-22T07:51:59.797Z,16.32
2023-03-22T07:54:33.962Z,16.75
2023-03-22T07:57:04.233Z,16.43
2023-03-22T07:59:39.901Z,14.52
2023-03-22T08:02:10.880Z,14.57
2023-03-22T08:04:45.024Z,15.23
2023-03-22T08:07:28.024Z,14.55
2023-03-22T08:09:58.286Z,15.63
2023-03-22T08:12:28.126Z,16.48
2023-03-22T08:15:07.358Z,15.58
2023-03-22T08:17:35.713Z,15.92
2023-03-22T08:20:08.585Z,17.23
2023-03-22T08:22:48.321Z,16.16
2023-03-22T08:25:29.613Z,15.66
2023-03-22T08:28:06.835Z,13.96
2023-03-22T08:30:35.532Z,14.73
2023-03-22T08:33:05.152Z,15.01
2023-03-22T08:35:33.846Z,15.40
2023-03-22T08:38:03.731Z,15.71
2023-03-22T08:40:41.356Z,15.60
2023-03-22T08:43:09.616Z,15.29
2023-03-22T08:45:38.806Z,15.08
2023-03-22T08:48:12.608Z,15.59
2023-03-22T08:51:07.834Z,15.77
2023-03-22T08:54:00.410Z,14.88
2023-03-22T08:56:48.342Z,15.37
2023-03-22T08:59:31.141Z,16.38
2023-03-22T09:02:26.681Z,16.85
2023-03-22T09:04:55.533Z,16.48
2023-03-22T09:07:24.472Z,16.86
2023-03-22T09:10:06.615Z,17.36
2023-03-22T09:12:38.241Z,17.03
2023-03-22T09:15:09.097Z,16.54
2023-03-22T09:17:40.207Z,16.37
2023-03-22T09:20:12.722Z,16.03
2023-03-22T09:22:44.087Z,16.40
2023-03-22T09:25:17.041Z,16.16
2023-03-22T09:27:48.529Z,16.89
2023-03-22T09:30:17.220Z,16.05
2023-03-22T09:32:45.741Z,16.64
2023-03-22T09:35:16.625Z,17.13
2023-03-22T09:38:00.646Z,16.65
2023-03-22T09:40:32.758Z,16.25
2023-03-22T09:43:06.522Z,15.96
2023-03-22T09:45:41.043Z,16.07
2023-03-22T09:48:17.563Z,16.24
2023-03-22T09:50:48.234Z,16.65
2023-03-22T09:53:19.255Z,16.88
2023-03-22T09:55:56.017Z,16.49
2023-03-22T09:58:29.909Z,17.12
2023-03-22T10:01:01.479Z,17.70
2023-03-22T10:03:57.423Z,16.92
2023-03-22T10:06:29.317Z,17.09
2023-03-22T10:09:07.092Z,16.50
2023-03-22T10:11:46.407Z,16.28
2023-03-22T10:14:26.369Z,15.86
2023-03-22T10:16:57.844Z,16.29
2023-03-22T10:19:32.284Z,16.65
2023-03-22T10:22:03.392Z,16.14
2023-03-22T10:24:34.519Z,16.91
2023-03-22T10:27:05.036Z,16.87
2023-03-22T10:29:38.917Z,17.72
2023-03-22T10:32:16.092Z,18.14
2023-03-22T10:34:45.166Z,18.53
2023-03-22T10:37:17.714Z,17.57
2023-03-22T10:39:50.019Z,18.17
2023-03-22T10:42:25.117Z,18.71
2023-03-22T10:44:57.453Z,18.06
2023-03-22T10:47:33.332Z,16.83
2023-03-22T10:50:04.469Z,17.66
2023-03-22T10:52:41.303Z,16.39
2023-03-22T10:55:15.780Z,16.85
2023-03-22T10:57:52.901Z,16.69
2023-03-22T11:00:24.232Z,16.69
2023-03-22T11:02:54.900Z,16.64
2023-03-22T11:05:26.810Z,16.49
2023-03-22T11:07:55.800Z,16.31
2023-03-22T11:10:28.605Z,15.70
2023-03-22T11:13:14.955Z,15.24
2023-03-22T11:15:52.978Z,15.32
2023-03-22T11:18:22.031Z,15.17
2023-03-22T11:21:00.792Z,16.20
2023-03-22T11:23:33.260Z,16.59
2023-03-22T11:26:08.195Z,16.75
2023-03-22T11:28:44.137Z,16.66
2023-03-22T11:31:13.847Z,16.21
2023-03-22T11:33:55.923Z,16.95
2023-03-22T11:36:25.074Z,17.40
2023-03-22T11:38:59.015Z,16.00
2023-03-22T11:41:29.588Z,15.53
2023-03-22T11:44:02.455Z,15.71
2023-03-22T11:46:32.209Z,16.31
2023-03-22T11:49:04.405Z,15.64
2023-03-22T11:51:36.201Z,15.53
2023-03-22T11:58:59.772Z,15.21
2023-03-22T12:01:37.433Z,15.08
2023-03-22T12:04:09.996Z,15.42
2023-03-22T12:06:40.925Z,15.77
2023-03-22T12:09:20.984Z,16.20
2023-03-22T12:11:52.698Z,16.70
2023-03-22T12:14:24.625Z,16.48
2023-03-22T12:16:59.963Z,15.87
2023-03-22T12:19:43.658Z,15.64
2023-03-22T12:22:17.193Z,15.68
2023-03-22T12:24:45.578Z,15.98
2023-03-22T12:27:19.197Z,16.37
2023-03-22T12:29:51.726Z,16.51
2023-03-22T12:32:26.859Z,15.61
2023-03-22T12:35:09.264Z,14.99
2023-03-22T12:37:44.584Z,14.91
2023-03-22T12:40:23.091Z,16.10
2023-03-22T12:43:01.806Z,15.82
2023-03-22T12:45:33.046Z,15.82
2023-03-22T12:48:09.256Z,15.79
2023-03-22T12:50:43.302Z,16.19
2023-03-22T12:53:16.386Z,16.93
2023-03-22T12:55:47.062Z,16.84
2023-03-22T12:58:23.778Z,15.92
2023-03-22T13:00:55.105Z,15.99
2023-03-22T13:03:30.015Z,15.52
2023-03-22T13:06:04.666Z,15.61
2023-03-22T13:09:18.695Z,15.59
2023-03-22T13:11:48.852Z,16.14
2023-03-22T13:14:50.473Z,16.08
2023-03-22T13:17:38.978Z,15.87
2023-03-22T13:20:28.341Z,15.24
2023-03-22T13:23:16.057Z,15.20
2023-03-22T13:26:03.566Z,15.28
2023-03-22T13:28:37.254Z,15.19
2023-03-22T13:31:06.487Z,15.64
2023-03-22T13:33:36.932Z,16.59
2023-03-22T13:36:23.960Z,16.81
2023-03-22T13:38:57.188Z,17.02
2023-03-22T13:41:29.512Z,16.57
2023-03-22T13:43:59.335Z,16.69
2023-03-22T13:46:46.693Z,17.23
2023-03-22T13:49:28.958Z,17.27
2023-03-22T13:52:02.439Z,16.95
2023-03-22T13:54:37.642Z,16.46
2023-03-22T13:57:06.245Z,16.05
2023-03-22T14:00:12.102Z,15.90
2023-03-22T14:02:43.965Z,16.37
2023-03-22T14:05:17.359Z,16.67
2023-03-22T14:07:49.894Z,17.02
2023-03-22T14:10:22.171Z,17.03
2023-03-22T14:12:53.345Z,16.50
2023-03-22T14:15:25.406Z,16.61
2023-03-22T14:17:59.632Z,16.38
2023-03-22T14:20:33.545Z,17.02
